50OI weather

CLOSED Beckman Field
Ashville, Ohio, United States

Public forecast

Using degrees Fahrenheit for public forecast. Weather courtesy of forecast.io.

Closest aviation weather report (METAR) to Beckman Field

Closest report is Rickenbacker International Airport, 6.7 nm (12.3 km) NE. Retrieved 2020/07/02 10:55 UTC (17 minutes ago):

KLCK 021055Z COR 00000KT 10SM CLR 19/17 A3001

Closest aviation forecast (TAF) to Beckman Field

Closest forecast is Rickenbacker International Airport, 6.7 nm (12.3 km) NE. Retrieved 2020/07/02 06:36 UTC (5 hours ago):

TAF KLCK 020532Z 0206/0306 03004KT P6SM SKC FM021600 04006KT P6SM FEW050 FM030000 VRB03KT P6SM SKC